sensor_id;sensor_type;location;lat;lon;timestamp;noise_LAeq;noise_LA_min;noise_LA_max;noise_LA01;noise_LA95
79288;Laerm;68737;53.946;27.634;2023-05-21T00:01:25;45.562752;41.133842;58.917938;;
79288;Laerm;68737;53.946;27.634;2023-05-21T00:03:55;44.953697;40.384102;52.950371;;
79288;Laerm;68737;53.946;27.634;2023-05-21T00:06:25;46.548203;42.385406;54.957092;;
79288;Laerm;68737;53.946;27.634;2023-05-21T00:08:55;46.172379;41.489288;57.624069;;
79288;Laerm;68737;53.946;27.634;2023-05-21T00:11:25;45.681396;41.093613;54.565178;;
79288;Laerm;68737;53.946;27.634;2023-05-21T00:13:55;44.174850;40.449684;54.187286;;
79288;Laerm;68737;53.946;27.634;2023-05-21T00:16:25;45.439102;40.724365;56.247574;;
79288;Laerm;68737;53.946;27.634;2023-05-21T00:18:55;48.238335;41.296638;71.532852;;
79288;Laerm;68737;53.946;27.634;2023-05-21T00:21:25;47.237038;42.043640;58.753281;;
79288;Laerm;68737;53.946;27.634;2023-05-21T00:23:55;48.977470;41.959007;60.762566;;
79288;Laerm;68737;53.946;27.634;2023-05-21T00:26:25;49.132317;41.489540;58.399261;;
79288;Laerm;68737;53.946;27.634;2023-05-21T00:28:55;46.068558;41.364258;57.416374;;
79288;Laerm;68737;53.946;27.634;2023-05-21T00:31:25;49.816429;41.380875;67.745392;;
79288;Laerm;68737;53.946;27.634;2023-05-21T00:33:55;49.117065;41.957062;60.412018;;
79288;Laerm;68737;53.946;27.634;2023-05-21T00:36:25;47.036659;41.894279;58.578331;;
79288;Laerm;68737;53.946;27.634;2023-05-21T00:38:55;47.998055;41.782616;64.838669;;
79288;Laerm;68737;53.946;27.634;2023-05-21T00:41:25;48.138535;40.880760;58.945038;;
79288;Laerm;68737;53.946;27.634;2023-05-21T00:43:55;46.667343;41.867554;57.444725;;
79288;Laerm;68737;53.946;27.634;2023-05-21T00:46:25;46.448830;42.025146;51.539757;;
79288;Laerm;68737;53.946;27.634;2023-05-21T00:48:55;45.398666;41.562508;55.201065;;
79288;Laerm;68737;53.946;27.634;2023-05-21T00:51:25;47.300980;42.788734;52.269203;;
79288;Laerm;68737;53.946;27.634;2023-05-21T00:53:55;49.931938;43.501846;68.226685;;
79288;Laerm;68737;53.946;27.634;2023-05-21T00:56:25;48.702583;44.386612;57.089218;;
79288;Laerm;68737;53.946;27.634;2023-05-21T00:58:55;45.533516;41.509773;50.721741;;
79288;Laerm;68737;53.946;27.634;2023-05-21T01:01:25;48.297455;43.172173;55.556602;;
79288;Laerm;68737;53.946;27.634;2023-05-21T01:03:55;46.672623;40.578133;56.500008;;
79288;Laerm;68737;53.946;27.634;2023-05-21T01:06:25;47.881927;42.840912;56.699783;;
79288;Laerm;68737;53.946;27.634;2023-05-21T01:08:55;47.755486;42.530899;65.943787;;
79288;Laerm;68737;53.946;27.634;2023-05-21T01:11:28;47.633354;42.197815;55.710907;;
79288;Laerm;68737;53.946;27.634;2023-05-21T01:13:55;49.009064;42.214958;65.562050;;
79288;Laerm;68737;53.946;27.634;2023-05-21T01:16:25;49.989082;42.684364;60.036301;;
79288;Laerm;68737;53.946;27.634;2023-05-21T01:18:55;49.886642;42.725685;63.525749;;
79288;Laerm;68737;53.946;27.634;2023-05-21T01:21:25;50.580467;41.590363;62.385490;;
79288;Laerm;68737;53.946;27.634;2023-05-21T01:23:55;50.945992;43.538918;60.088326;;
79288;Laerm;68737;53.946;27.634;2023-05-21T01:26:25;52.026184;42.862816;80.508896;;
79288;Laerm;68737;53.946;27.634;2023-05-21T01:28:55;48.256691;41.900253;58.563965;;
79288;Laerm;68737;53.946;27.634;2023-05-21T01:31:25;49.162224;42.659355;65.247513;;
79288;Laerm;68737;53.946;27.634;2023-05-21T01:33:55;53.343224;43.568405;67.440170;;
79288;Laerm;68737;53.946;27.634;2023-05-21T01:36:26;52.318420;43.564354;66.400894;;
79288;Laerm;68737;53.946;27.634;2023-05-21T01:41:25;48.557114;42.789642;58.135811;;
79288;Laerm;68737;53.946;27.634;2023-05-21T01:43:55;48.368942;42.533379;55.661026;;
79288;Laerm;68737;53.946;27.634;2023-05-21T01:46:25;49.008125;43.838715;65.280830;;
79288;Laerm;68737;53.946;27.634;2023-05-21T01:48:55;51.908989;43.609955;65.317657;;
79288;Laerm;68737;53.946;27.634;2023-05-21T01:51:25;48.277443;43.036949;53.377197;;
79288;Laerm;68737;53.946;27.634;2023-05-21T01:53:55;46.989532;41.818924;54.465508;;
79288;Laerm;68737;53.946;27.634;2023-05-21T01:56:25;46.062653;41.570663;58.024170;;
79288;Laerm;68737;53.946;27.634;2023-05-21T01:58:55;48.074020;42.412415;59.782368;;
79288;Laerm;68737;53.946;27.634;2023-05-21T02:01:25;51.296753;43.592987;70.428101;;
79288;Laerm;68737;53.946;27.634;2023-05-21T02:03:55;47.417046;42.284889;57.513382;;
79288;Laerm;68737;53.946;27.634;2023-05-21T02:06:25;50.023819;42.865379;61.115150;;
79288;Laerm;68737;53.946;27.634;2023-05-21T02:08:55;49.482346;41.648315;62.167770;;
79288;Laerm;68737;53.946;27.634;2023-05-21T02:11:25;48.417763;41.879509;59.150444;;
79288;Laerm;68737;53.946;27.634;2023-05-21T02:13:55;48.811920;42.849693;68.181595;;
79288;Laerm;68737;53.946;27.634;2023-05-21T02:16:25;48.167877;42.631546;59.760525;;
79288;Laerm;68737;53.946;27.634;2023-05-21T02:18:55;49.822807;43.032089;62.633530;;
79288;Laerm;68737;53.946;27.634;2023-05-21T02:21:25;47.266914;42.106911;61.406403;;
79288;Laerm;68737;53.946;27.634;2023-05-21T02:23:55;46.242096;42.280289;57.190826;;
79288;Laerm;68737;53.946;27.634;2023-05-21T02:26:25;50.536041;41.943832;71.769791;;
79288;Laerm;68737;53.946;27.634;2023-05-21T02:28:55;47.722687;42.581947;57.107414;;
79288;Laerm;68737;53.946;27.634;2023-05-21T02:31:25;48.872536;41.875259;66.926651;;
79288;Laerm;68737;53.946;27.634;2023-05-21T02:33:55;59.097553;39.499565;84.744057;;
79288;Laerm;68737;53.946;27.634;2023-05-21T02:36:25;47.691582;42.313927;68.310776;;
79288;Laerm;68737;53.946;27.634;2023-05-21T02:38:55;47.677071;42.094208;57.884018;;
79288;Laerm;68737;53.946;27.634;2023-05-21T02:41:25;45.977974;41.541504;58.772682;;
79288;Laerm;68737;53.946;27.634;2023-05-21T02:43:55;51.160744;42.281807;64.281837;;
79288;Laerm;68737;53.946;27.634;2023-05-21T02:46:25;48.411430;43.167282;64.720886;;
79288;Laerm;68737;53.946;27.634;2023-05-21T02:48:55;50.030296;42.631241;65.482559;;
79288;Laerm;68737;53.946;27.634;2023-05-21T02:51:25;48.123459;42.870857;56.596848;;
79288;Laerm;68737;53.946;27.634;2023-05-21T02:53:55;47.929726;42.017494;63.070656;;
79288;Laerm;68737;53.946;27.634;2023-05-21T02:56:25;51.604927;41.146431;67.351990;;
79288;Laerm;68737;53.946;27.634;2023-05-21T02:58:55;51.712433;41.081779;63.726551;;
79288;Laerm;68737;53.946;27.634;2023-05-21T03:01:25;50.262932;42.678535;61.793674;;
79288;Laerm;68737;53.946;27.634;2023-05-21T03:03:55;48.322777;42.556831;59.044830;;
79288;Laerm;68737;53.946;27.634;2023-05-21T03:06:25;46.836784;41.482315;57.640053;;
79288;Laerm;68737;53.946;27.634;2023-05-21T03:08:55;46.733696;41.505333;66.091019;;
79288;Laerm;68737;53.946;27.634;2023-05-21T03:11:25;47.903168;43.581581;61.314247;;
79288;Laerm;68737;53.946;27.634;2023-05-21T03:13:55;49.125908;43.020546;60.394779;;
79288;Laerm;68737;53.946;27.634;2023-05-21T03:16:25;48.808975;42.579330;59.117302;;
79288;Laerm;68737;53.946;27.634;2023-05-21T03:18:55;47.654907;42.595901;61.000904;;
79288;Laerm;68737;53.946;27.634;2023-05-21T03:21:25;47.763252;41.815132;67.539932;;
79288;Laerm;68737;53.946;27.634;2023-05-21T03:23:55;47.407410;42.073288;55.148552;;
79288;Laerm;68737;53.946;27.634;2023-05-21T03:26:25;48.311508;41.594551;60.987961;;
79288;Laerm;68737;53.946;27.634;2023-05-21T03:28:55;49.971260;42.522522;68.803192;;
79288;Laerm;68737;53.946;27.634;2023-05-21T03:31:25;50.222122;41.943771;66.374802;;
79288;Laerm;68737;53.946;27.634;2023-05-21T03:33:55;46.465782;42.507294;63.235188;;
79288;Laerm;68737;53.946;27.634;2023-05-21T03:36:25;48.005051;42.130936;60.096249;;
79288;Laerm;68737;53.946;27.634;2023-05-21T03:38:55;48.426872;42.782677;62.180828;;
79288;Laerm;68737;53.946;27.634;2023-05-21T03:41:25;48.986504;42.094238;61.504009;;
79288;Laerm;68737;53.946;27.634;2023-05-21T03:43:55;49.886017;43.611755;66.742279;;
79288;Laerm;68737;53.946;27.634;2023-05-21T03:46:25;48.265305;42.026726;58.327896;;
79288;Laerm;68737;53.946;27.634;2023-05-21T03:48:55;48.876289;42.474693;60.387016;;
79288;Laerm;68737;53.946;27.634;2023-05-21T03:51:25;49.134018;42.420006;59.983791;;
79288;Laerm;68737;53.946;27.634;2023-05-21T03:53:56;48.111198;41.731659;63.510143;;
79288;Laerm;68737;53.946;27.634;2023-05-21T03:56:25;49.611290;41.308388;61.097923;;
79288;Laerm;68737;53.946;27.634;2023-05-21T03:58:55;47.166420;41.383743;56.804199;;
79288;Laerm;68737;53.946;27.634;2023-05-21T04:01:25;50.697914;43.752754;65.123993;;
79288;Laerm;68737;53.946;27.634;2023-05-21T04:03:55;48.331177;43.499908;65.382431;;
79288;Laerm;68737;53.946;27.634;2023-05-21T04:06:25;51.153427;44.143875;60.024921;;
79288;Laerm;68737;53.946;27.634;2023-05-21T04:08:55;51.354652;44.237770;64.741226;;
79288;Laerm;68737;53.946;27.634;2023-05-21T04:11:25;49.114601;43.834602;58.427078;;
79288;Laerm;68737;53.946;27.634;2023-05-21T04:13:55;50.201340;44.842407;58.483269;;
79288;Laerm;68737;53.946;27.634;2023-05-21T04:16:25;49.484619;44.281120;59.870285;;
79288;Laerm;68737;53.946;27.634;2023-05-21T04:18:55;49.424217;44.545403;59.683582;;
79288;Laerm;68737;53.946;27.634;2023-05-21T04:21:25;51.207184;44.505211;60.084572;;
79288;Laerm;68737;53.946;27.634;2023-05-21T04:23:55;49.685036;44.592056;60.550293;;
79288;Laerm;68737;53.946;27.634;2023-05-21T04:26:25;49.618187;44.905525;67.161011;;
79288;Laerm;68737;53.946;27.634;2023-05-21T04:28:55;49.716293;45.056023;64.175110;;
79288;Laerm;68737;53.946;27.634;2023-05-21T04:31:25;51.000923;44.637878;58.571327;;
79288;Laerm;68737;53.946;27.634;2023-05-21T04:33:55;49.972832;44.392448;60.556099;;
79288;Laerm;68737;53.946;27.634;2023-05-21T04:36:25;49.923225;44.648064;61.141933;;
79288;Laerm;68737;53.946;27.634;2023-05-21T04:38:55;50.380760;43.406197;59.799480;;
79288;Laerm;68737;53.946;27.634;2023-05-21T04:41:25;50.301598;43.544510;59.067711;;
79288;Laerm;68737;53.946;27.634;2023-05-21T04:43:55;49.368103;42.911087;59.618313;;
79288;Laerm;68737;53.946;27.634;2023-05-21T04:46:25;49.307236;42.353287;60.900944;;
79288;Laerm;68737;53.946;27.634;2023-05-21T04:48:55;47.893311;42.821999;59.722572;;
79288;Laerm;68737;53.946;27.634;2023-05-21T04:51:25;50.165871;43.715027;61.115124;;
79288;Laerm;68737;53.946;27.634;2023-05-21T04:53:55;50.643761;42.570381;62.194313;;
79288;Laerm;68737;53.946;27.634;2023-05-21T04:56:25;48.770546;42.190491;59.931774;;
79288;Laerm;68737;53.946;27.634;2023-05-21T04:58:54;49.363976;42.398308;61.947926;;
79288;Laerm;68737;53.946;27.634;2023-05-21T05:01:24;52.382072;42.198380;65.581375;;
79288;Laerm;68737;53.946;27.634;2023-05-21T05:03:54;46.497116;40.975304;56.018867;;
79288;Laerm;68737;53.946;27.634;2023-05-21T05:06:24;55.114311;42.341125;71.155380;;
79288;Laerm;68737;53.946;27.634;2023-05-21T05:08:54;50.781784;40.095551;66.520409;;
79288;Laerm;68737;53.946;27.634;2023-05-21T05:11:25;52.794716;42.558205;66.854721;;
79288;Laerm;68737;53.946;27.634;2023-05-21T05:13:54;50.661949;40.108391;59.818226;;
79288;Laerm;68737;53.946;27.634;2023-05-21T05:16:24;48.349045;40.166420;60.951355;;
79288;Laerm;68737;53.946;27.634;2023-05-21T05:18:54;55.876465;40.833534;69.277557;;
79288;Laerm;68737;53.946;27.634;2023-05-21T05:21:24;50.187798;40.855545;61.701939;;
79288;Laerm;68737;53.946;27.634;2023-05-21T05:23:54;50.354439;41.555504;61.314308;;
79288;Laerm;68737;53.946;27.634;2023-05-21T05:26:25;49.012512;40.968513;58.212471;;
79288;Laerm;68737;53.946;27.634;2023-05-21T05:28:54;52.430122;41.319618;64.606918;;
79288;Laerm;68737;53.946;27.634;2023-05-21T05:31:24;47.137535;40.029160;56.436272;;
79288;Laerm;68737;53.946;27.634;2023-05-21T05:33:54;46.713005;39.985847;59.046803;;
79288;Laerm;68737;53.946;27.634;2023-05-21T05:36:24;50.737770;42.154892;59.324348;;
79288;Laerm;68737;53.946;27.634;2023-05-21T05:38:54;47.495361;40.447586;57.480583;;
79288;Laerm;68737;53.946;27.634;2023-05-21T05:41:24;52.483673;40.786880;63.007423;;
79288;Laerm;68737;53.946;27.634;2023-05-21T05:43:54;51.115417;41.557060;64.409492;;
79288;Laerm;68737;53.946;27.634;2023-05-21T05:46:24;50.129913;40.891136;67.555595;;
79288;Laerm;68737;53.946;27.634;2023-05-21T05:48:54;51.502213;40.377884;74.532631;;
79288;Laerm;68737;53.946;27.634;2023-05-21T05:51:24;48.809654;40.917671;57.553978;;
79288;Laerm;68737;53.946;27.634;2023-05-21T05:53:54;49.889534;40.629700;63.582600;;
79288;Laerm;68737;53.946;27.634;2023-05-21T05:56:24;51.035027;41.285225;60.326546;;
79288;Laerm;68737;53.946;27.634;2023-05-21T05:58:54;49.517784;41.253143;58.615807;;
79288;Laerm;68737;53.946;27.634;2023-05-21T06:01:24;52.288208;41.573036;66.911087;;
79288;Laerm;68737;53.946;27.634;2023-05-21T06:03:54;49.425919;40.011200;61.726887;;
79288;Laerm;68737;53.946;27.634;2023-05-21T06:06:24;49.285278;39.942101;59.723949;;
79288;Laerm;68737;53.946;27.634;2023-05-21T06:08:54;50.159790;40.379654;63.581150;;
79288;Laerm;68737;53.946;27.634;2023-05-21T06:11:24;51.001442;39.819473;65.108887;;
79288;Laerm;68737;53.946;27.634;2023-05-21T06:13:54;50.407074;41.043221;58.520645;;
79288;Laerm;68737;53.946;27.634;2023-05-21T06:16:24;49.935593;39.747055;61.949600;;
79288;Laerm;68737;53.946;27.634;2023-05-21T06:18:54;50.034821;41.014519;69.767097;;
79288;Laerm;68737;53.946;27.634;2023-05-21T06:21:24;52.644211;39.394730;78.115738;;
79288;Laerm;68737;53.946;27.634;2023-05-21T06:23:54;49.075020;40.148491;61.528690;;
79288;Laerm;68737;53.946;27.634;2023-05-21T06:26:24;52.820213;41.710396;62.269238;;
79288;Laerm;68737;53.946;27.634;2023-05-21T06:28:54;48.805809;39.468117;57.754341;;
79288;Laerm;68737;53.946;27.634;2023-05-21T06:31:24;49.941742;40.365120;59.287762;;
79288;Laerm;68737;53.946;27.634;2023-05-21T06:33:54;49.510208;39.972939;65.444153;;
79288;Laerm;68737;53.946;27.634;2023-05-21T06:36:25;50.701004;40.665848;60.634113;;
79288;Laerm;68737;53.946;27.634;2023-05-21T06:38:55;51.440620;41.360924;61.758797;;
79288;Laerm;68737;53.946;27.634;2023-05-21T06:41:24;52.279350;41.891937;61.077583;;
79288;Laerm;68737;53.946;27.634;2023-05-21T06:43:54;49.829948;39.718071;57.720673;;
79288;Laerm;68737;53.946;27.634;2023-05-21T06:46:24;50.699715;40.360115;61.365849;;
79288;Laerm;68737;53.946;27.634;2023-05-21T06:48:54;51.189941;41.794281;70.071442;;
79288;Laerm;68737;53.946;27.634;2023-05-21T06:51:24;52.324806;42.426796;64.557762;;
79288;Laerm;68737;53.946;27.634;2023-05-21T06:53:54;50.693336;41.979095;61.063580;;
79288;Laerm;68737;53.946;27.634;2023-05-21T06:56:24;53.224792;43.104691;66.258858;;
79288;Laerm;68737;53.946;27.634;2023-05-21T06:58:54;50.951508;42.608597;59.107540;;
79288;Laerm;68737;53.946;27.634;2023-05-21T07:01:24;51.968559;41.735847;60.626827;;
79288;Laerm;68737;53.946;27.634;2023-05-21T07:03:54;49.585190;41.533302;60.994041;;
79288;Laerm;68737;53.946;27.634;2023-05-21T07:06:24;50.794418;42.013573;63.194962;;
79288;Laerm;68737;53.946;27.634;2023-05-21T07:08:54;52.303909;41.088867;77.482101;;
79288;Laerm;68737;53.946;27.634;2023-05-21T07:11:24;55.282211;44.145660;72.843643;;
79288;Laerm;68737;53.946;27.634;2023-05-21T07:16:24;50.578789;42.164497;64.014801;;
79288;Laerm;68737;53.946;27.634;2023-05-21T07:18:54;51.614380;43.344742;74.136238;;
79288;Laerm;68737;53.946;27.634;2023-05-21T07:21:24;51.836670;43.671448;63.850323;;
79288;Laerm;68737;53.946;27.634;2023-05-21T07:23:54;52.944725;44.635201;65.431015;;
79288;Laerm;68737;53.946;27.634;2023-05-21T07:26:24;51.400467;43.693314;64.954666;;
79288;Laerm;68737;53.946;27.634;2023-05-21T07:28:54;52.835518;44.070892;60.748390;;
79288;Laerm;68737;53.946;27.634;2023-05-21T07:31:24;52.124832;44.204201;61.054363;;
79288;Laerm;68737;53.946;27.634;2023-05-21T07:33:54;52.625656;45.115028;60.159058;;
79288;Laerm;68737;53.946;27.634;2023-05-21T07:36:24;52.342339;44.999107;62.305565;;
79288;Laerm;68737;53.946;27.634;2023-05-21T07:38:54;51.685875;43.985832;66.732201;;
79288;Laerm;68737;53.946;27.634;2023-05-21T07:41:24;52.654236;44.311325;61.804836;;
79288;Laerm;68737;53.946;27.634;2023-05-21T07:43:54;54.590157;44.942177;60.981010;;
79288;Laerm;68737;53.946;27.634;2023-05-21T07:46:24;52.089401;45.179047;59.734848;;
79288;Laerm;68737;53.946;27.634;2023-05-21T07:48:54;54.039291;45.919716;72.320374;;
79288;Laerm;68737;53.946;27.634;2023-05-21T07:51:24;53.271416;44.190422;68.647171;;
79288;Laerm;68737;53.946;27.634;2023-05-21T07:53:54;52.310417;44.399109;62.746784;;
79288;Laerm;68737;53.946;27.634;2023-05-21T07:56:24;57.308327;44.065041;76.712143;;
79288;Laerm;68737;53.946;27.634;2023-05-21T07:58:54;59.739120;43.304794;80.548500;;
79288;Laerm;68737;53.946;27.634;2023-05-21T08:01:25;61.776909;45.822395;86.462051;;
79288;Laerm;68737;53.946;27.634;2023-05-21T08:03:54;53.177650;43.969009;69.558121;;
79288;Laerm;68737;53.946;27.634;2023-05-21T08:06:24;51.009819;42.890617;64.614990;;
79288;Laerm;68737;53.946;27.634;2023-05-21T08:08:54;50.392052;42.818596;62.241909;;
79288;Laerm;68737;53.946;27.634;2023-05-21T08:11:24;52.051125;45.146515;63.410175;;
79288;Laerm;68737;53.946;27.634;2023-05-21T08:13:54;51.977959;44.956757;67.939590;;
79288;Laerm;68737;53.946;27.634;2023-05-21T08:16:24;55.434814;44.284790;70.130043;;
79288;Laerm;68737;53.946;27.634;2023-05-21T08:18:54;51.854256;45.567833;59.998184;;
79288;Laerm;68737;53.946;27.634;2023-05-21T08:21:24;65.825684;44.951805;88.478355;;
79288;Laerm;68737;53.946;27.634;2023-05-21T08:23:54;51.441566;44.743057;65.130882;;
79288;Laerm;68737;53.946;27.634;2023-05-21T08:26:24;50.834518;44.464996;61.419659;;
79288;Laerm;68737;53.946;27.634;2023-05-21T08:28:54;56.106583;42.952614;79.142014;;
79288;Laerm;68737;53.946;27.634;2023-05-21T08:31:24;54.099518;45.870255;69.205109;;
79288;Laerm;68737;53.946;27.634;2023-05-21T08:33:54;51.669701;43.727592;60.352486;;
79288;Laerm;68737;53.946;27.634;2023-05-21T08:36:24;51.270416;42.379280;67.427490;;
79288;Laerm;68737;53.946;27.634;2023-05-21T08:38:54;52.169121;44.856300;59.975750;;
79288;Laerm;68737;53.946;27.634;2023-05-21T08:41:24;54.543793;45.646774;70.331894;;
79288;Laerm;68737;53.946;27.634;2023-05-21T08:43:54;52.601936;43.860153;70.219696;;
79288;Laerm;68737;53.946;27.634;2023-05-21T08:46:24;53.589104;45.516495;60.772194;;
79288;Laerm;68737;53.946;27.634;2023-05-21T08:48:54;51.703293;43.135651;59.789375;;
79288;Laerm;68737;53.946;27.634;2023-05-21T08:51:24;53.600159;42.989449;64.849884;;
79288;Laerm;68737;53.946;27.634;2023-05-21T08:53:54;54.095497;43.588593;71.851288;;
79288;Laerm;68737;53.946;27.634;2023-05-21T08:56:24;51.867233;42.982445;65.688126;;
79288;Laerm;68737;53.946;27.634;2023-05-21T08:58:54;52.600822;42.572792;69.402985;;
79288;Laerm;68737;53.946;27.634;2023-05-21T09:01:24;52.679131;44.172554;64.550018;;
79288;Laerm;68737;53.946;27.634;2023-05-21T09:03:55;52.530350;44.592125;68.970490;;
79288;Laerm;68737;53.946;27.634;2023-05-21T09:06:24;54.542442;45.784439;63.505177;;
79288;Laerm;68737;53.946;27.634;2023-05-21T09:11:24;51.682182;42.246155;66.488876;;
79288;Laerm;68737;53.946;27.634;2023-05-21T09:13:54;51.917694;43.422256;64.775497;;
79288;Laerm;68737;53.946;27.634;2023-05-21T09:16:24;53.184425;45.052925;60.094696;;
79288;Laerm;68737;53.946;27.634;2023-05-21T09:18:54;52.446472;45.027573;67.559891;;
79288;Laerm;68737;53.946;27.634;2023-05-21T09:21:25;52.640205;44.615509;60.948105;;
79288;Laerm;68737;53.946;27.634;2023-05-21T09:23:54;51.758835;45.360985;62.213772;;
79288;Laerm;68737;53.946;27.634;2023-05-21T09:26:24;52.445099;43.449638;60.926487;;
79288;Laerm;68737;53.946;27.634;2023-05-21T09:31:24;53.468033;43.535255;66.048851;;
79288;Laerm;68737;53.946;27.634;2023-05-21T09:33:54;54.874039;44.495186;68.152473;;
79288;Laerm;68737;53.946;27.634;2023-05-21T09:36:24;52.434273;43.488297;65.226425;;
79288;Laerm;68737;53.946;27.634;2023-05-21T09:38:54;52.782562;44.306641;64.716995;;
79288;Laerm;68737;53.946;27.634;2023-05-21T09:43:57;51.135643;44.442184;65.181580;;
79288;Laerm;68737;53.946;27.634;2023-05-21T09:46:24;54.125519;44.384331;69.328842;;
79288;Laerm;68737;53.946;27.634;2023-05-21T09:48:54;54.938896;44.153076;82.402863;;
79288;Laerm;68737;53.946;27.634;2023-05-21T09:51:24;54.858078;46.265785;70.504486;;
79288;Laerm;68737;53.946;27.634;2023-05-21T09:53:55;55.138458;43.945152;71.755722;;
79288;Laerm;68737;53.946;27.634;2023-05-21T09:56:25;53.960129;45.668602;70.973465;;
79288;Laerm;68737;53.946;27.634;2023-05-21T09:58:59;53.216751;43.907967;71.594284;;
79288;Laerm;68737;53.946;27.634;2023-05-21T10:01:24;52.948708;43.669754;62.503723;;
79288;Laerm;68737;53.946;27.634;2023-05-21T10:03:55;53.456276;44.009590;64.775665;;
79288;Laerm;68737;53.946;27.634;2023-05-21T10:06:25;61.813431;43.299934;86.108871;;
79288;Laerm;68737;53.946;27.634;2023-05-21T10:08:55;51.873840;42.312256;65.425766;;
79288;Laerm;68737;53.946;27.634;2023-05-21T10:11:26;53.930283;42.364494;66.059921;;
79288;Laerm;68737;53.946;27.634;2023-05-21T10:16:24;53.763458;43.028915;68.911133;;
79288;Laerm;68737;53.946;27.634;2023-05-21T10:18:54;54.100616;40.691109;69.751869;;
79288;Laerm;68737;53.946;27.634;2023-05-21T10:21:25;54.765152;44.282860;75.904221;;
79288;Laerm;68737;53.946;27.634;2023-05-21T10:23:54;54.410042;43.897171;70.084175;;
79288;Laerm;68737;53.946;27.634;2023-05-21T10:26:24;52.412682;43.657654;61.208771;;
79288;Laerm;68737;53.946;27.634;2023-05-21T10:28:55;52.395554;42.666969;59.779240;;
79288;Laerm;68737;53.946;27.634;2023-05-21T10:31:24;53.306808;42.433830;64.565765;;
79288;Laerm;68737;53.946;27.634;2023-05-21T10:33:54;53.497429;43.308701;64.003448;;
79288;Laerm;68737;53.946;27.634;2023-05-21T10:36:24;53.621223;44.361816;66.869659;;
79288;Laerm;68737;53.946;27.634;2023-05-21T10:38:54;52.997879;45.467453;67.936630;;
79288;Laerm;68737;53.946;27.634;2023-05-21T10:41:24;52.954773;44.405518;61.797310;;
79288;Laerm;68737;53.946;27.634;2023-05-21T10:46:29;52.479454;44.581619;60.136639;;
79288;Laerm;68737;53.946;27.634;2023-05-21T10:51:25;55.936478;44.530281;73.902283;;
79288;Laerm;68737;53.946;27.634;2023-05-21T11:01:26;51.014824;42.839333;68.411041;;
79288;Laerm;68737;53.946;27.634;2023-05-21T11:03:54;51.149536;43.521301;61.224911;;
79288;Laerm;68737;53.946;27.634;2023-05-21T11:06:25;51.577309;44.855598;64.457214;;
79288;Laerm;68737;53.946;27.634;2023-05-21T11:08:54;53.494385;44.044029;67.909050;;
79288;Laerm;68737;53.946;27.634;2023-05-21T11:13:54;52.612091;43.706680;67.442230;;
79288;Laerm;68737;53.946;27.634;2023-05-21T11:16:24;52.242088;43.110985;63.676731;;
79288;Laerm;68737;53.946;27.634;2023-05-21T11:21:27;51.272903;42.374535;66.099724;;
79288;Laerm;68737;53.946;27.634;2023-05-21T11:26:25;54.099808;42.516701;68.311699;;
79288;Laerm;68737;53.946;27.634;2023-05-21T11:31:24;54.568832;43.443794;66.261780;;
79288;Laerm;68737;53.946;27.634;2023-05-21T11:36:24;51.430817;43.979256;59.218224;;
79288;Laerm;68737;53.946;27.634;2023-05-21T11:41:24;52.766441;44.412842;66.201035;;
79288;Laerm;68737;53.946;27.634;2023-05-21T11:46:24;53.737366;45.514023;65.564011;;
79288;Laerm;68737;53.946;27.634;2023-05-21T11:48:54;53.463829;43.060585;62.764854;;
79288;Laerm;68737;53.946;27.634;2023-05-21T11:51:24;51.747581;40.805229;59.349094;;
79288;Laerm;68737;53.946;27.634;2023-05-21T11:53:54;51.166771;40.989166;63.598171;;
79288;Laerm;68737;53.946;27.634;2023-05-21T11:56:24;53.724228;42.197258;64.682343;;
79288;Laerm;68737;53.946;27.634;2023-05-21T11:58:54;52.668167;42.709938;64.638992;;
79288;Laerm;68737;53.946;27.634;2023-05-21T12:01:24;51.671677;42.756989;60.350899;;
79288;Laerm;68737;53.946;27.634;2023-05-21T12:03:54;52.307686;46.130844;60.157776;;
79288;Laerm;68737;53.946;27.634;2023-05-21T12:08:54;53.954330;46.126984;63.545441;;
79288;Laerm;68737;53.946;27.634;2023-05-21T12:11:24;52.937119;44.409927;62.661530;;
79288;Laerm;68737;53.946;27.634;2023-05-21T12:13:54;51.994370;43.472733;59.175625;;
79288;Laerm;68737;53.946;27.634;2023-05-21T12:16:24;52.620667;43.588699;70.670204;;
79288;Laerm;68737;53.946;27.634;2023-05-21T12:18:54;51.099335;42.527000;62.070248;;
79288;Laerm;68737;53.946;27.634;2023-05-21T12:21:26;52.084854;42.607239;58.772125;;
79288;Laerm;68737;53.946;27.634;2023-05-21T12:23:54;51.601448;42.260193;62.262169;;
79288;Laerm;68737;53.946;27.634;2023-05-21T12:26:24;52.072464;41.038391;63.186520;;
79288;Laerm;68737;53.946;27.634;2023-05-21T12:28:54;51.422768;42.264282;61.419273;;
79288;Laerm;68737;53.946;27.634;2023-05-21T12:31:24;53.595772;44.216728;70.316574;;
79288;Laerm;68737;53.946;27.634;2023-05-21T12:33:54;52.305939;41.160378;65.639328;;
79288;Laerm;68737;53.946;27.634;2023-05-21T12:38:54;51.584846;43.005569;68.278763;;